createdAt,value
2022-08-18T00:01:14.872Z,14.88
2022-08-18T00:03:56.551Z,15.48
2022-08-18T00:06:30.209Z,17.38
2022-08-18T00:09:03.999Z,20.25
2022-08-18T00:11:41.007Z,17.88
2022-08-18T00:14:21.607Z,21.75
2022-08-18T00:16:52.115Z,22.25
2022-08-18T00:19:19.568Z,22.02
2022-08-18T00:21:46.679Z,17.63
2022-08-18T00:24:13.974Z,16.10
2022-08-18T00:26:46.930Z,18.40
2022-08-18T00:29:18.488Z,19.45
2022-08-18T00:31:48.537Z,19.58
2022-08-18T00:34:15.677Z,15.73
2022-08-18T00:36:43.462Z,14.23
2022-08-18T00:39:10.587Z,15.38
2022-08-18T00:41:37.797Z,15.00
2022-08-18T00:44:05.107Z,21.27
2022-08-18T00:46:35.941Z,20.67
2022-08-18T00:49:04.353Z,16.02
2022-08-18T00:51:43.349Z,15.23
2022-08-18T00:54:18.665Z,15.70
2022-08-18T00:56:50.356Z,22.55
2022-08-18T00:59:31.292Z,15.90
2022-08-18T01:02:02.645Z,17.50
2022-08-18T01:04:29.624Z,20.65
2022-08-18T01:07:01.602Z,17.48
2022-08-18T01:09:29.165Z,21.25
2022-08-18T01:11:56.737Z,15.52
2022-08-18T01:14:24.608Z,17.30
2022-08-18T01:17:10.403Z,17.80
2022-08-18T01:19:56.479Z,18.13
2022-08-18T01:22:47.782Z,19.35
2022-08-18T01:25:35.196Z,21.42
2022-08-18T01:28:03.796Z,19.88
2022-08-18T01:30:44.133Z,21.55
2022-08-18T01:33:12.378Z,22.95
2022-08-18T01:35:43.218Z,18.02
2022-08-18T01:38:11.518Z,25.08
2022-08-18T01:41:22.242Z,26.83
2022-08-18T01:43:26.653Z,25.15
2022-08-18T01:45:53.964Z,21.92
2022-08-18T01:48:21.373Z,23.88
2022-08-18T01:50:49.959Z,20.52
2022-08-18T01:53:18.943Z,21.77
2022-08-18T01:55:46.133Z,18.00
2022-08-18T01:58:13.169Z,22.38
2022-08-18T02:00:42.151Z,19.85
2022-08-18T02:03:12.905Z,23.40
2022-08-18T02:05:44.793Z,19.00
2022-08-18T02:08:15.500Z,17.00
2022-08-18T02:10:43.049Z,19.33
2022-08-18T02:13:12.978Z,18.85
2022-08-18T02:15:41.910Z,19.60
2022-08-18T02:18:43.536Z,17.23
2022-08-18T02:23:37.660Z,23.90
2022-08-18T02:26:09.715Z,18.25
2022-08-18T02:28:37.176Z,19.67
2022-08-18T02:31:11.350Z,18.92
2022-08-18T02:33:38.953Z,26.67
2022-08-18T02:36:12.478Z,37.60
2022-08-18T02:38:41.102Z,29.98
2022-08-18T02:41:12.321Z,29.42
2022-08-18T02:43:42.116Z,37.75
2022-08-18T02:46:10.225Z,27.73
2022-08-18T02:48:37.362Z,32.90
2022-08-18T02:51:09.495Z,41.13
2022-08-18T02:53:37.701Z,31.63
2022-08-18T02:56:40.327Z,26.50
2022-08-18T02:59:24.180Z,26.77
2022-08-18T03:01:55.132Z,29.05
2022-08-18T03:04:29.532Z,30.80
2022-08-18T03:07:00.724Z,25.38
2022-08-18T03:09:29.323Z,38.33
2022-08-18T03:11:56.868Z,25.88
2022-08-18T03:14:24.440Z,30.10
2022-08-18T03:16:53.587Z,31.67
2022-08-18T03:19:24.677Z,36.92
2022-08-18T03:21:52.810Z,41.72
2022-08-18T03:24:22.874Z,28.75
2022-08-18T03:26:52.733Z,33.80
2022-08-18T03:29:20.624Z,20.63
2022-08-18T03:31:48.705Z,21.15
2022-08-18T03:34:19.853Z,29.92
2022-08-18T03:36:49.996Z,28.65
2022-08-18T03:39:18.945Z,25.20
2022-08-18T03:41:59.233Z,25.98
2022-08-18T03:44:31.126Z,22.42
2022-08-18T03:47:00.228Z,22.63
2022-08-18T03:49:27.332Z,24.00
2022-08-18T03:51:54.883Z,23.65
2022-08-18T03:54:22.726Z,22.60
2022-08-18T03:56:49.968Z,20.88
2022-08-18T03:59:23.146Z,30.13
2022-08-18T04:01:52.603Z,28.70
2022-08-18T04:04:24.468Z,22.25
2022-08-18T04:06:54.921Z,40.40
2022-08-18T04:09:24.561Z,20.65
2022-08-18T04:11:52.068Z,20.30
2022-08-18T04:14:24.915Z,20.20
2022-08-18T04:16:53.150Z,23.35
2022-08-18T04:19:22.706Z,19.77
2022-08-18T04:21:56.963Z,17.20
2022-08-18T04:24:26.562Z,19.02
2022-08-18T04:26:57.337Z,17.60
2022-08-18T04:29:24.852Z,21.00
2022-08-18T04:31:53.089Z,17.52
2022-08-18T04:34:22.879Z,16.17
2022-08-18T04:36:54.072Z,27.33
2022-08-18T04:39:22.919Z,16.13
2022-08-18T04:41:50.745Z,16.05
2022-08-18T04:44:18.253Z,19.60
2022-08-18T04:46:48.182Z,25.75
2022-08-18T04:49:17.238Z,21.90
2022-08-18T04:52:36.411Z,24.75
2022-08-18T04:54:53.789Z,28.30
2022-08-18T04:57:22.989Z,26.35
2022-08-18T04:59:52.195Z,15.50
2022-08-18T05:02:21.285Z,16.85
2022-08-18T05:04:48.616Z,20.33
2022-08-18T05:07:19.187Z,24.60
2022-08-18T05:09:47.025Z,15.48
2022-08-18T05:12:15.988Z,19.13
2022-08-18T05:14:44.754Z,20.63
2022-08-18T05:17:14.096Z,13.90
2022-08-18T05:19:44.618Z,15.18
2022-08-18T05:22:19.516Z,13.38
2022-08-18T05:24:55.495Z,9.90
2022-08-18T05:27:22.835Z,11.32
2022-08-18T05:29:51.747Z,13.68
2022-08-18T05:32:30.596Z,13.10
2022-08-18T05:35:16.728Z,16.83
2022-08-18T05:37:47.450Z,11.18
2022-08-18T05:40:15.576Z,10.60
2022-08-18T05:42:46.174Z,10.32
2022-08-18T05:45:23.946Z,14.60
2022-08-18T05:47:51.693Z,10.57
2022-08-18T05:50:20.830Z,13.23
2022-08-18T05:53:01.458Z,12.25
2022-08-18T05:56:26.351Z,11.65
2022-08-18T06:01:32.897Z,10.52
2022-08-18T06:04:06.734Z,11.15
2022-08-18T06:06:36.612Z,12.07
2022-08-18T06:09:19.945Z,11.88
2022-08-18T06:11:47.293Z,16.80
2022-08-18T06:14:14.555Z,13.02
2022-08-18T06:16:50.869Z,10.57
2022-08-18T06:19:36.844Z,9.57
2022-08-18T06:22:52.229Z,10.52
2022-08-18T06:25:31.168Z,12.38
2022-08-18T06:28:15.974Z,11.07
2022-08-18T06:30:49.479Z,9.93
2022-08-18T06:33:23.980Z,10.77
2022-08-18T06:36:03.187Z,8.85
2022-08-18T06:39:04.951Z,8.65
2022-08-18T06:41:50.013Z,12.13
2022-08-18T06:44:49.119Z,12.52
2022-08-18T06:47:40.986Z,9.25
2022-08-18T06:50:16.933Z,12.10
2022-08-18T06:52:56.329Z,11.38
2022-08-18T06:55:38.842Z,10.32
2022-08-18T06:58:27.140Z,10.13
2022-08-18T07:00:56.675Z,11.50
2022-08-18T07:03:42.254Z,10.05
2022-08-18T07:06:21.095Z,9.45
2022-08-18T07:08:50.515Z,18.90
2022-08-18T07:11:25.159Z,11.18
2022-08-18T07:14:15.418Z,9.68
2022-08-18T07:17:00.008Z,12.35
2022-08-18T07:19:33.271Z,14.05
2022-08-18T07:22:08.254Z,11.60
2022-08-18T07:24:49.228Z,12.60
2022-08-18T07:27:40.343Z,14.82
2022-08-18T07:30:25.534Z,13.55
2022-08-18T07:33:04.594Z,14.27
2022-08-18T07:35:46.212Z,10.73
2022-08-18T07:38:42.638Z,14.25
2022-08-18T07:41:11.373Z,13.13
2022-08-18T07:43:51.858Z,13.88
2022-08-18T07:46:47.866Z,10.23
2022-08-18T07:49:22.300Z,10.15
2022-08-18T07:52:44.402Z,15.02
2022-08-18T07:55:32.170Z,13.05
2022-08-18T07:58:18.404Z,12.73
2022-08-18T08:01:16.599Z,10.60
2022-08-18T08:04:04.921Z,9.77
2022-08-18T08:07:06.468Z,8.57
2022-08-18T08:09:52.161Z,11.25
2022-08-18T08:13:08.475Z,12.90
2022-08-18T08:15:53.806Z,11.27
2022-08-18T08:18:36.919Z,12.15
2022-08-18T08:21:19.938Z,11.68
2022-08-18T08:24:12.160Z,7.57
2022-08-18T08:26:50.142Z,8.20
2022-08-18T08:29:42.337Z,13.20
2022-08-18T08:32:11.902Z,10.88
2022-08-18T08:34:49.224Z,10.05
2022-08-18T08:38:23.014Z,13.05
2022-08-18T08:40:57.767Z,9.13
2022-08-18T08:43:32.258Z,5.97
2022-08-18T08:46:31.280Z,11.82
2022-08-18T08:49:16.049Z,9.73
2022-08-18T08:51:56.710Z,8.50
2022-08-18T08:54:30.812Z,7.57
2022-08-18T08:57:01.259Z,7.50
2022-08-18T08:59:28.694Z,10.45
2022-08-18T09:02:02.341Z,12.38
2022-08-18T09:05:09.619Z,10.48
2022-08-18T09:08:19.040Z,9.02
2022-08-18T09:11:02.802Z,11.10
2022-08-18T09:13:48.787Z,12.47
2022-08-18T09:17:02.601Z,8.52
2022-08-18T09:20:00.045Z,7.97
2022-08-18T09:22:48.671Z,7.38
2022-08-18T09:25:39.200Z,11.23
2022-08-18T09:28:29.651Z,9.20
2022-08-18T09:31:03.156Z,8.52
2022-08-18T09:33:45.730Z,10.32
2022-08-18T09:36:31.422Z,8.43
2022-08-18T09:39:31.199Z,10.85
2022-08-18T09:42:08.757Z,9.60
2022-08-18T09:44:47.719Z,12.73
2022-08-18T09:47:21.982Z,8.18
2022-08-18T09:50:06.189Z,8.82
2022-08-18T09:52:33.375Z,11.93
2022-08-18T09:55:16.637Z,8.70
2022-08-18T09:57:45.304Z,6.10
2022-08-18T10:00:13.757Z,9.40
2022-08-18T10:02:50.852Z,10.63
2022-08-18T10:05:31.103Z,9.70
2022-08-18T10:08:03.556Z,10.15
2022-08-18T10:13:55.672Z,12.18
2022-08-18T10:17:13.493Z,9.10
2022-08-18T10:19:41.417Z,9.60
2022-08-18T10:22:11.418Z,12.95
2022-08-18T10:24:52.140Z,9.85
2022-08-18T10:27:46.561Z,14.48
2022-08-18T10:30:34.498Z,7.30
2022-08-18T10:33:17.635Z,6.72
2022-08-18T10:36:03.088Z,8.95
2022-08-18T10:38:45.825Z,9.48
2022-08-18T10:41:36.405Z,6.57
2022-08-18T10:44:28.315Z,8.85
2022-08-18T10:46:59.817Z,8.10
2022-08-18T10:49:31.967Z,11.88
2022-08-18T10:52:26.871Z,5.22
2022-08-18T10:55:10.187Z,6.93
2022-08-18T10:57:53.722Z,7.60
2022-08-18T11:00:22.918Z,5.97
2022-08-18T11:03:01.891Z,9.82
2022-08-18T11:05:31.841Z,6.65
2022-08-18T11:08:04.787Z,11.35
2022-08-18T11:11:27.641Z,5.30
2022-08-18T11:14:11.869Z,9.10
2022-08-18T11:16:56.112Z,8.25
2022-08-18T11:19:24.471Z,6.47
2022-08-18T11:21:53.311Z,7.18
2022-08-18T11:24:31.782Z,5.18
2022-08-18T11:27:03.253Z,4.85
2022-08-18T11:29:41.631Z,6.93
2022-08-18T11:32:37.262Z,6.97
2022-08-18T11:38:13.595Z,8.52
2022-08-18T11:41:13.031Z,5.88
2022-08-18T11:43:43.120Z,7.72
2022-08-18T11:46:32.098Z,5.65
2022-08-18T11:49:13.749Z,5.38
2022-08-18T11:52:03.451Z,7.18
2022-08-18T11:54:50.533Z,4.88
2022-08-18T11:57:46.633Z,8.90
2022-08-18T12:00:46.068Z,8.40
2022-08-18T12:03:44.641Z,6.97
2022-08-18T12:10:07.844Z,5.55
2022-08-18T12:12:32.105Z,8.30
2022-08-18T12:15:24.747Z,7.10
2022-08-18T12:17:53.864Z,5.35
2022-08-18T12:20:22.118Z,7.30
2022-08-18T12:22:51.328Z,10.10
2022-08-18T12:25:24.750Z,7.85
2022-08-18T12:27:52.812Z,7.10
2022-08-18T12:30:20.214Z,8.07
2022-08-18T12:35:35.336Z,7.90
2022-08-18T12:38:11.290Z,7.63
2022-08-18T12:40:42.034Z,6.25
2022-08-18T12:43:09.272Z,6.53
2022-08-18T12:45:38.214Z,7.07
2022-08-18T12:48:07.789Z,4.80
2022-08-18T12:50:50.101Z,11.07
2022-08-18T12:53:29.645Z,5.72
2022-08-18T12:56:37.537Z,5.50
2022-08-18T12:59:07.643Z,5.80
2022-08-18T13:01:37.146Z,7.82
2022-08-18T13:06:59.853Z,4.72
2022-08-18T13:09:48.053Z,6.43
2022-08-18T13:12:19.695Z,5.60
2022-08-18T13:14:50.854Z,7.72
2022-08-18T13:17:30.465Z,9.20
2022-08-18T13:20:05.544Z,6.90
2022-08-18T13:22:33.587Z,10.40
2022-08-18T13:25:04.013Z,6.50
2022-08-18T13:27:35.747Z,6.50
2022-08-18T13:30:16.676Z,6.78
2022-08-18T13:32:59.017Z,5.63
2022-08-18T13:35:30.058Z,5.75
2022-08-18T13:38:17.101Z,4.78
2022-08-18T13:40:53.988Z,10.43
2022-08-18T13:43:29.527Z,7.07
2022-08-18T13:45:59.922Z,5.50
2022-08-18T13:48:29.839Z,6.82
2022-08-18T13:51:01.112Z,5.10
2022-08-18T13:53:29.963Z,4.65
2022-08-18T13:55:59.329Z,6.88
2022-08-18T13:58:28.039Z,8.25
2022-08-18T14:01:22.920Z,4.95
2022-08-18T14:03:50.241Z,4.55
2022-08-18T14:06:22.872Z,6.10
2022-08-18T14:08:53.299Z,7.47
2022-08-18T14:11:27.631Z,6.50
2022-08-18T14:14:01.906Z,5.93
2022-08-18T14:16:29.260Z,7.28
2022-08-18T14:19:17.711Z,6.60
2022-08-18T14:22:11.079Z,6.63
2022-08-18T14:24:59.699Z,8.65
2022-08-18T14:27:34.981Z,7.43
2022-08-18T14:30:09.204Z,11.93
2022-08-18T14:32:48.809Z,6.97
2022-08-18T14:35:26.982Z,8.98
2022-08-18T14:38:03.699Z,6.47
2022-08-18T14:40:33.437Z,9.90
2022-08-18T14:43:02.718Z,11.90
2022-08-18T14:45:35.660Z,9.33
2022-08-18T14:48:07.499Z,8.63
2022-08-18T14:50:40.281Z,9.20
2022-08-18T14:53:20.262Z,8.00
2022-08-18T14:55:54.745Z,6.32
2022-08-18T14:58:42.152Z,6.95
2022-08-18T15:01:11.640Z,9.38
2022-08-18T15:03:39.920Z,5.18
2022-08-18T15:06:08.318Z,6.40
2022-08-18T15:08:47.064Z,6.15
2022-08-18T15:11:14.287Z,9.68
2022-08-18T15:13:45.301Z,7.80
2022-08-18T15:16:14.819Z,6.28
2022-08-18T15:18:44.259Z,5.50
2022-08-18T15:21:35.601Z,7.60
2022-08-18T15:26:57.634Z,6.15
2022-08-18T15:29:29.218Z,6.47
2022-08-18T15:32:02.158Z,5.72
2022-08-18T15:34:46.217Z,7.43
2022-08-18T15:37:19.563Z,13.10
2022-08-18T15:39:51.957Z,8.98
2022-08-18T15:42:23.956Z,10.25
2022-08-18T15:44:53.738Z,7.10
2022-08-18T15:47:25.143Z,8.43
2022-08-18T15:49:54.928Z,5.65
2022-08-18T15:52:25.815Z,5.45
2022-08-18T15:54:57.034Z,10.43
2022-08-18T15:57:39.686Z,9.90
2022-08-18T16:00:12.440Z,9.07
2022-08-18T16:02:44.725Z,8.95
2022-08-18T16:05:17.175Z,8.23
2022-08-18T16:07:45.281Z,8.75
2022-08-18T16:10:14.166Z,7.78
2022-08-18T16:12:45.966Z,15.13
2022-08-18T16:15:21.182Z,9.18
2022-08-18T16:17:50.607Z,10.55
2022-08-18T16:20:19.232Z,11.15
2022-08-18T16:22:47.776Z,12.88
2022-08-18T16:25:16.585Z,7.57
2022-08-18T16:27:44.566Z,9.23
2022-08-18T16:30:17.833Z,14.35
2022-08-18T16:32:45.558Z,12.13
2022-08-18T16:35:12.919Z,9.45
2022-08-18T16:37:40.179Z,11.05
2022-08-18T16:40:08.676Z,14.32
2022-08-18T16:42:36.696Z,8.63
2022-08-18T16:45:07.859Z,6.30
2022-08-18T16:47:41.138Z,11.52
2022-08-18T16:50:11.268Z,8.20
2022-08-18T16:52:39.858Z,6.25
2022-08-18T16:55:09.295Z,7.38
2022-08-18T16:57:57.946Z,11.70
2022-08-18T17:00:44.749Z,12.25
2022-08-18T17:03:30.724Z,7.10
2022-08-18T17:06:13.971Z,9.00
2022-08-18T17:08:42.475Z,21.73
2022-08-18T17:11:13.896Z,30.13
2022-08-18T17:13:42.529Z,21.38
2022-08-18T17:16:11.146Z,22.35
2022-08-18T17:18:39.449Z,30.15
2022-08-18T17:21:08.288Z,11.32
2022-08-18T17:23:38.998Z,14.40
2022-08-18T17:26:26.139Z,12.13
2022-08-18T17:29:03.359Z,14.68
2022-08-18T17:31:32.265Z,16.98
2022-08-18T17:34:07.101Z,13.13
2022-08-18T17:36:53.912Z,14.02
2022-08-18T17:39:27.478Z,16.98
2022-08-18T17:42:13.541Z,19.45
2022-08-18T17:44:52.029Z,15.95
2022-08-18T17:47:25.855Z,22.58
2022-08-18T17:50:26.684Z,24.40
2022-08-18T17:53:01.570Z,14.13
2022-08-18T17:55:39.899Z,33.58
2022-08-18T17:58:15.545Z,38.00
2022-08-18T18:00:42.679Z,69.70
2022-08-18T18:03:13.326Z,22.52
2022-08-18T18:05:49.998Z,47.83
2022-08-18T18:08:17.760Z,52.50
2022-08-18T18:11:05.418Z,45.38
2022-08-18T18:13:33.927Z,38.47
2022-08-18T18:16:19.825Z,29.15
2022-08-18T18:18:59.848Z,26.40
2022-08-18T18:21:55.368Z,32.35
2022-08-18T18:24:23.629Z,19.85
2022-08-18T18:26:52.057Z,14.05
2022-08-18T18:29:37.742Z,8.40
2022-08-18T18:32:06.830Z,10.88
2022-08-18T18:34:40.953Z,14.48
2022-08-18T18:37:26.274Z,24.50
2022-08-18T18:39:59.858Z,48.15
2022-08-18T18:42:33.099Z,35.85
2022-08-18T18:45:09.450Z,51.95
2022-08-18T18:48:05.511Z,44.38
2022-08-18T18:51:10.814Z,59.28
2022-08-18T18:53:52.613Z,39.42
2022-08-18T18:56:53.900Z,13.30
2022-08-18T19:00:02.364Z,27.42
2022-08-18T19:03:07.389Z,35.03
2022-08-18T19:05:50.228Z,57.90
2022-08-18T19:08:39.612Z,46.25
2022-08-18T19:11:14.337Z,29.27
2022-08-18T19:13:55.115Z,32.13
2022-08-18T19:16:30.633Z,22.13
2022-08-18T19:19:37.862Z,17.98
2022-08-18T19:22:08.286Z,19.92
2022-08-18T19:24:43.308Z,14.73
2022-08-18T19:27:23.575Z,18.15
2022-08-18T19:29:55.242Z,12.77
2022-08-18T19:32:31.301Z,12.80
2022-08-18T19:35:00.279Z,10.77
2022-08-18T19:37:34.708Z,9.68
2022-08-18T19:40:54.456Z,13.88
2022-08-18T19:46:23.205Z,32.13
2022-08-18T19:49:03.283Z,27.83
2022-08-18T19:51:37.778Z,22.52
2022-08-18T19:54:26.370Z,16.50
2022-08-18T19:57:16.204Z,18.25
2022-08-18T20:00:12.674Z,18.17
2022-08-18T20:03:04.013Z,17.88
2022-08-18T20:05:39.057Z,16.13
2022-08-18T20:08:39.678Z,19.73
2022-08-18T20:11:15.832Z,17.85
2022-08-18T20:13:45.492Z,18.45
2022-08-18T20:16:14.979Z,17.27
2022-08-18T20:18:49.035Z,19.67
2022-08-18T20:21:16.637Z,14.93
2022-08-18T20:24:18.418Z,17.55
2022-08-18T20:26:50.029Z,21.90
2022-08-18T20:29:36.292Z,16.85
2022-08-18T20:32:07.189Z,18.63
2022-08-18T20:34:36.040Z,13.15
2022-08-18T20:37:08.373Z,23.10
2022-08-18T20:39:56.399Z,31.10
2022-08-18T20:42:24.472Z,23.83
2022-08-18T20:45:28.157Z,29.17
2022-08-18T20:48:01.466Z,18.58
2022-08-18T20:50:54.276Z,17.13
2022-08-18T20:53:41.919Z,12.95
2022-08-18T20:56:32.282Z,15.07
2022-08-18T20:59:21.064Z,13.38
2022-08-18T21:02:02.712Z,13.02
2022-08-18T21:04:51.076Z,16.73
2022-08-18T21:07:36.666Z,12.38
2022-08-18T21:10:18.673Z,14.07
2022-08-18T21:12:53.713Z,18.23
2022-08-18T21:15:35.560Z,12.38
2022-08-18T21:18:24.103Z,13.32
2022-08-18T21:20:53.886Z,16.48
2022-08-18T21:23:30.775Z,16.35
2022-08-18T21:26:29.132Z,14.50
2022-08-18T21:29:02.087Z,16.05
2022-08-18T21:31:43.748Z,12.70
2022-08-18T21:34:18.587Z,16.17
2022-08-18T21:36:51.988Z,17.95
2022-08-18T21:39:20.958Z,15.00
2022-08-18T21:41:53.878Z,15.65
2022-08-18T21:44:38.454Z,13.23
2022-08-18T21:47:09.656Z,12.77
2022-08-18T21:49:37.810Z,12.48
2022-08-18T21:52:05.317Z,12.05
2022-08-18T21:54:34.372Z,14.73
2022-08-18T21:57:26.479Z,13.52
2022-08-18T22:00:24.001Z,15.00
2022-08-18T22:03:08.888Z,13.10
2022-08-18T22:05:58.410Z,14.23
2022-08-18T22:08:30.730Z,14.77
2022-08-18T22:11:57.696Z,16.83
2022-08-18T22:14:28.214Z,15.30
2022-08-18T22:17:32.669Z,21.02
2022-08-18T22:20:36.703Z,20.55
2022-08-18T22:23:28.944Z,14.07
2022-08-18T22:26:13.614Z,13.60
2022-08-18T22:31:10.846Z,14.82
2022-08-18T22:33:37.928Z,14.40
2022-08-18T22:36:05.372Z,14.38
2022-08-18T22:38:32.472Z,16.75
2022-08-18T22:41:00.358Z,14.05
2022-08-18T22:43:27.899Z,13.75
2022-08-18T22:45:55.122Z,13.30
2022-08-18T22:48:22.267Z,14.88
2022-08-18T22:50:49.624Z,13.93
2022-08-18T22:53:26.404Z,13.65
2022-08-18T22:55:54.244Z,13.60
2022-08-18T22:58:28.031Z,14.13
2022-08-18T23:01:01.076Z,13.60
2022-08-18T23:03:40.756Z,16.67
2022-08-18T23:06:10.321Z,15.20
2022-08-18T23:08:54.831Z,13.98
2022-08-18T23:11:28.823Z,14.80
2022-08-18T23:13:56.744Z,18.48
2022-08-18T23:16:31.899Z,16.60
2022-08-18T23:19:03.586Z,14.77
2022-08-18T23:21:34.394Z,15.75
2022-08-18T23:24:06.770Z,16.33
2022-08-18T23:26:34.452Z,13.95
2022-08-18T23:29:02.322Z,15.77
2022-08-18T23:31:30.334Z,16.27
2022-08-18T23:34:00.693Z,15.70
2022-08-18T23:36:29.608Z,16.75
2022-08-18T23:38:57.007Z,20.88
2022-08-18T23:41:25.186Z,14.38
2022-08-18T23:43:52.668Z,16.10
2022-08-18T23:46:28.117Z,14.30
2022-08-18T23:48:57.350Z,17.10
2022-08-18T23:51:26.581Z,14.32
2022-08-18T23:53:56.871Z,16.08
2022-08-18T23:56:28.195Z,15.75
2022-08-18T23:58:56.921Z,18.48
